Time;durP1;ratioP1;P1;durP2;ratioP2;P2;SDS_P1;SDS_P2;PMS_P1;PMS_P2;Temp;Humidity;BMP_temperature;BMP_pressure;BME280_temperature;BME280_humidity;BME280_pressure;Samples;Min_cycle;Max_cycle;Signal;HPM_P1;HPM_P2
2021/01/01 01:19:00;;;;;;;;;;;1.80;99.90;;;;;;6084652;23;19935;31
2021/01/01 01:44:11;;;;;;;;;;;1.80;99.90;;;;;;5375353;23;19925;-80
2021/01/01 02:01:26;;;;;;;;;;;2.80;99.90;;;;;;5039645;28;19956;-80
2021/01/01 02:10:04;;;;;;;;;;;4.90;99.90;;;;;;5037277;28;19937;-80
2021/01/01 02:12:37;;;;;;;;;;;3.80;99.90;;;;;;5033160;28;19919;-80
2021/01/01 02:27:31;;;;;;;;;;;2.20;99.90;;;;;;4977854;28;19947;-80
2021/01/01 02:29:57;;;;;;;;;;;1.90;99.90;;;;;;5036731;28;19940;-80
2021/01/01 02:32:31;;;;;;;;;;;3.30;99.90;;;;;;5037726;28;19926;-80
2021/01/01 03:03:50;;;;;;;;;;;3.90;99.90;;;;;;5146321;23;19909;-80
2021/01/01 03:06:28;;;;;;;;;;;3.60;99.90;;;;;;5037681;28;19932;-81
2021/01/01 03:20:29;;;;;;;;;;;1.90;99.90;;;;;;5052269;28;19925;-80
2021/01/01 03:22:55;;;;;;;;;;;1.90;99.90;;;;;;5048113;28;20338;-80
2021/01/01 03:25:21;;;;;;;;;;;1.90;99.90;;;;;;5048365;28;19925;-80
2021/01/01 03:27:47;;;;;;;;;;;1.80;99.90;;;;;;5051015;28;20071;-80
2021/01/01 03:30:14;;;;;;;;;;;1.90;99.90;;;;;;5052965;28;20018;-80
2021/01/01 03:32:41;;;;;;;;;;;0.60;99.90;;;;;;5056784;28;20008;-80
2021/01/01 03:35:09;;;;;;;;;;;1.90;99.90;;;;;;5052138;28;19936;-80
2021/01/01 03:37:44;;;;;;;;;;;2.00;99.90;;;;;;5049135;28;19925;-80
2021/01/01 03:40:12;;;;;;;;;;;1.90;99.90;;;;;;5053727;28;19968;-80
2021/01/01 03:42:42;;;;;;;;;;;4.00;99.90;;;;;;5052271;28;19928;-80
2021/01/01 03:45:10;;;;;;;;;;;1.90;99.90;;;;;;5052014;28;19925;-80
2021/01/01 03:47:41;;;;;;;;;;;1.90;99.90;;;;;;5051811;28;19925;-80
2021/01/01 03:50:13;;;;;;;;;;;1.90;99.90;;;;;;5056931;28;19961;-80
2021/01/01 03:52:41;;;;;;;;;;;2.10;99.90;;;;;;5056208;28;19932;-80
2021/01/01 03:55:11;;;;;;;;;;;1.90;99.90;;;;;;5056646;28;19933;-80
2021/01/01 03:57:40;;;;;;;;;;;-1.10;99.90;;;;;;5057763;28;19936;-80
2021/01/01 04:02:56;;;;;;;;;;;2.50;99.90;;;;;;5038134;28;19968;-78
2021/01/01 04:05:24;;;;;;;;;;;1.90;99.90;;;;;;5055408;28;19929;-78
2021/01/01 04:07:52;;;;;;;;;;;2.10;99.90;;;;;;5054079;28;19925;-78
2021/01/01 04:10:19;;;;;;;;;;;2.10;99.90;;;;;;5053723;28;19932;-78
2021/01/01 04:12:46;;;;;;;;;;;2.20;99.90;;;;;;5050782;28;19924;-78
2021/01/01 04:15:13;;;;;;;;;;;1.90;99.90;;;;;;5049696;28;19987;-78
2021/01/01 04:17:41;;;;;;;;;;;1.80;99.90;;;;;;5050647;28;20008;-78
2021/01/01 04:20:07;;;;;;;;;;;-1.90;99.90;;;;;;5051466;28;20008;-77
2021/01/01 04:22:35;;;;;;;;;;;2.10;99.90;;;;;;5049659;28;19960;-78
2021/01/01 04:25:01;;;;;;;;;;;1.90;99.90;;;;;;5051324;28;19925;-78
2021/01/01 04:27:36;;;;;;;;;;;1.90;99.90;;;;;;5053380;28;19925;-78
2021/01/01 04:30:03;;;;;;;;;;;1.70;99.90;;;;;;5053974;28;20270;-78
2021/01/01 04:32:35;;;;;;;;;;;2.30;99.90;;;;;;5056010;28;19925;-79
2021/01/01 04:35:07;;;;;;;;;;;2.20;99.90;;;;;;5049770;28;19940;-78
2021/01/01 04:37:35;;;;;;;;;;;2.00;99.90;;;;;;5046871;28;19932;-78
2021/01/01 04:40:03;;;;;;;;;;;1.70;99.90;;;;;;5046302;28;19963;-78
2021/01/01 04:42:31;;;;;;;;;;;2.10;99.90;;;;;;5046513;28;20322;-78
2021/01/01 04:45:00;;;;;;;;;;;1.80;99.90;;;;;;5046112;28;20357;-78
2021/01/01 04:47:28;;;;;;;;;;;1.80;99.90;;;;;;5049076;28;19935;-78
2021/01/01 04:49:55;;;;;;;;;;;1.70;99.90;;;;;;5050704;28;19989;-78
2021/01/01 04:52:23;;;;;;;;;;;1.70;99.90;;;;;;5049655;28;19971;-78
2021/01/01 04:54:51;;;;;;;;;;;1.80;99.90;;;;;;5047737;28;19925;-78
2021/01/01 04:57:17;;;;;;;;;;;1.80;99.90;;;;;;5046982;28;19925;-78
2021/01/01 04:59:47;;;;;;;;;;;1.80;99.90;;;;;;5046570;28;19980;-78
2021/01/01 05:02:19;;;;;;;;;;;2.10;99.90;;;;;;5049700;28;19925;-78
2021/01/01 05:04:46;;;;;;;;;;;2.00;99.90;;;;;;5050723;28;19993;-78
2021/01/01 05:07:16;;;;;;;;;;;1.80;99.90;;;;;;5049894;28;19925;-78
2021/01/01 05:10:01;;;;;;;;;;;2.00;99.90;;;;;;5050487;28;19926;-78
2021/01/01 05:12:32;;;;;;;;;;;1.80;99.90;;;;;;5052376;28;19926;-78
2021/01/01 05:15:01;;;;;;;;;;;-1.00;99.90;;;;;;5050278;28;20259;-79
2021/01/01 05:17:40;;;;;;;;;;;1.80;99.90;;;;;;5050999;28;19964;-79
2021/01/01 05:20:09;;;;;;;;;;;1.90;99.90;;;;;;5050785;28;19988;-78
2021/01/01 05:22:36;;;;;;;;;;;2.10;99.90;;;;;;5051032;28;19956;-79
2021/01/01 05:25:06;;;;;;;;;;;2.10;99.90;;;;;;5051197;28;19909;-78
2021/01/01 05:27:36;;;;;;;;;;;1.90;99.90;;;;;;5051766;28;20464;-78
2021/01/01 05:30:08;;;;;;;;;;;1.80;99.90;;;;;;5049527;28;19933;-78
2021/01/01 05:32:35;;;;;;;;;;;1.90;99.90;;;;;;5046304;28;19996;-78
2021/01/01 05:35:05;;;;;;;;;;;1.80;99.90;;;;;;5046399;28;19936;-78
2021/01/01 05:37:33;;;;;;;;;;;1.60;99.90;;;;;;5047129;28;19966;-78
2021/01/01 05:40:01;;;;;;;;;;;1.80;99.90;;;;;;5045461;28;19925;-78
2021/01/01 05:42:29;;;;;;;;;;;1.80;99.90;;;;;;5045700;28;19956;-78
2021/01/01 05:44:57;;;;;;;;;;;1.80;99.90;;;;;;5044131;28;19926;-78
2021/01/01 05:47:25;;;;;;;;;;;1.70;99.90;;;;;;5043950;28;19924;-78
2021/01/01 05:49:51;;;;;;;;;;;1.80;99.90;;;;;;5043800;28;19925;-78
2021/01/01 05:52:21;;;;;;;;;;;2.10;99.90;;;;;;5044358;28;19963;-78
2021/01/01 05:54:49;;;;;;;;;;;2.00;99.90;;;;;;5044019;28;19948;-78
2021/01/01 05:57:16;;;;;;;;;;;1.80;99.90;;;;;;5045464;28;19948;-78
2021/01/01 05:59:45;;;;;;;;;;;1.80;99.90;;;;;;5046194;28;19924;-78
2021/01/01 06:02:13;;;;;;;;;;;1.80;99.90;;;;;;5046699;28;19929;-78
2021/01/01 06:04:41;;;;;;;;;;;1.80;99.90;;;;;;5046952;28;20464;-78
2021/01/01 06:07:09;;;;;;;;;;;1.80;99.90;;;;;;5047357;28;19925;-78
2021/01/01 06:09:38;;;;;;;;;;;1.70;99.90;;;;;;5049350;28;19925;-78
2021/01/01 06:12:06;;;;;;;;;;;1.70;99.90;;;;;;5049886;28;19987;-78
2021/01/01 06:14:35;;;;;;;;;;;1.70;99.90;;;;;;5049893;28;19929;-78
2021/01/01 06:17:19;;;;;;;;;;;1.80;99.90;;;;;;5050317;28;19925;-78
2021/01/01 06:19:48;;;;;;;;;;;1.60;99.90;;;;;;5050687;28;19925;-78
2021/01/01 06:22:16;;;;;;;;;;;1.80;99.90;;;;;;5049609;28;19925;-78
2021/01/01 06:24:44;;;;;;;;;;;-1.20;99.90;;;;;;5050691;28;19929;-78
2021/01/01 06:27:12;;;;;;;;;;;1.70;99.90;;;;;;5050966;28;20374;-78
2021/01/01 06:29:44;;;;;;;;;;;1.70;99.90;;;;;;5051969;28;19955;-78
2021/01/01 06:32:12;;;;;;;;;;;1.70;99.90;;;;;;5053377;28;20412;-78
2021/01/01 06:34:40;;;;;;;;;;;2.70;99.90;;;;;;5054333;28;19936;-78
2021/01/01 06:37:10;;;;;;;;;;;2.00;99.90;;;;;;5054034;28;19936;-78
2021/01/01 06:39:42;;;;;;;;;;;1.70;99.90;;;;;;5053606;28;19925;-78
2021/01/01 06:42:11;;;;;;;;;;;2.10;99.90;;;;;;5053548;28;19925;-78
2021/01/01 06:44:40;;;;;;;;;;;1.60;99.90;;;;;;5052671;28;19925;-78
2021/01/01 06:47:08;;;;;;;;;;;2.00;99.90;;;;;;5050935;28;19975;-78
2021/01/01 06:49:39;;;;;;;;;;;1.60;99.90;;;;;;5051277;28;20007;-78
2021/01/01 06:52:13;;;;;;;;;;;1.60;99.90;;;;;;5052037;28;19925;-78
2021/01/01 06:54:56;;;;;;;;;;;1.60;99.90;;;;;;5053155;28;19936;-78
2021/01/01 06:57:24;;;;;;;;;;;1.80;99.90;;;;;;5051995;28;19936;-78
2021/01/01 06:59:52;;;;;;;;;;;1.70;99.90;;;;;;5051090;28;20346;-79
2021/01/01 07:02:25;;;;;;;;;;;1.70;99.90;;;;;;5051391;28;19935;-78
2021/01/01 07:04:52;;;;;;;;;;;-0.60;99.90;;;;;;5052391;28;19926;-78
2021/01/01 07:07:37;;;;;;;;;;;1.70;99.90;;;;;;5051128;28;19926;-78
2021/01/01 07:10:06;;;;;;;;;;;1.70;99.90;;;;;;5051252;28;20008;-78
2021/01/01 07:12:34;;;;;;;;;;;1.70;99.90;;;;;;5051043;28;19929;-78
2021/01/01 07:15:03;;;;;;;;;;;1.70;99.90;;;;;;5051140;28;19925;-78
2021/01/01 07:17:46;;;;;;;;;;;1.80;99.90;;;;;;5050125;28;19955;-78
2021/01/01 07:20:18;;;;;;;;;;;1.70;99.90;;;;;;5051381;28;19956;-78
2021/01/01 07:22:45;;;;;;;;;;;1.70;99.90;;;;;;5049969;28;19925;-78
2021/01/01 07:25:15;;;;;;;;;;;1.70;99.90;;;;;;5049399;28;19929;-78
2021/01/01 07:27:44;;;;;;;;;;;1.70;99.90;;;;;;5051506;28;19986;-78
2021/01/01 07:30:12;;;;;;;;;;;1.60;99.90;;;;;;5051590;28;19925;-78
2021/01/01 07:32:40;;;;;;;;;;;1.60;99.90;;;;;;5051025;28;19925;-79
2021/01/01 07:35:15;;;;;;;;;;;1.60;99.90;;;;;;5049354;28;19925;-78
2021/01/01 07:37:41;;;;;;;;;;;1.60;99.90;;;;;;5048145;28;19929;-78
2021/01/01 07:40:13;;;;;;;;;;;1.60;99.90;;;;;;5047613;28;19925;-78
2021/01/01 07:42:47;;;;;;;;;;;1.60;99.90;;;;;;5047301;28;19932;-78
2021/01/01 07:45:15;;;;;;;;;;;2.10;99.90;;;;;;5045285;28;19925;-78
2021/01/01 07:47:46;;;;;;;;;;;1.70;99.90;;;;;;5043801;28;19940;-78
2021/01/01 07:50:15;;;;;;;;;;;1.70;99.90;;;;;;5042840;28;19948;-78
2021/01/01 07:52:43;;;;;;;;;;;1.60;99.90;;;;;;5043695;28;19925;-78
2021/01/01 07:55:10;;;;;;;;;;;1.70;99.90;;;;;;5044111;28;19925;-78
2021/01/01 07:57:39;;;;;;;;;;;1.60;99.90;;;;;;5041959;28;19925;-78
2021/01/01 08:00:08;;;;;;;;;;;1.60;99.90;;;;;;5041190;28;19999;-78
2021/01/01 08:02:35;;;;;;;;;;;1.60;99.90;;;;;;5041882;28;19935;-78
2021/01/01 08:05:03;;;;;;;;;;;1.60;99.90;;;;;;5041566;28;19925;-78
2021/01/01 08:07:31;;;;;;;;;;;1.60;99.90;;;;;;5041631;28;19925;-78
2021/01/01 08:09:58;;;;;;;;;;;1.50;99.90;;;;;;5041496;28;19936;-78
2021/01/01 08:12:26;;;;;;;;;;;1.60;99.90;;;;;;5039936;28;20364;-78
2021/01/01 08:14:55;;;;;;;;;;;1.60;99.90;;;;;;5039008;28;19937;-77
2021/01/01 08:17:24;;;;;;;;;;;1.60;99.90;;;;;;5038402;28;20016;-77
2021/01/01 08:19:52;;;;;;;;;;;1.50;99.90;;;;;;5038006;28;19956;-77
2021/01/01 08:22:21;;;;;;;;;;;1.50;99.90;;;;;;5038783;28;19924;-77
2021/01/01 08:24:49;;;;;;;;;;;1.50;99.90;;;;;;5039973;28;19925;-78
2021/01/01 08:27:17;;;;;;;;;;;1.50;99.90;;;;;;5039550;28;19925;-77
2021/01/01 08:29:44;;;;;;;;;;;1.50;99.90;;;;;;5039380;28;19925;-77
2021/01/01 08:32:11;;;;;;;;;;;1.50;99.90;;;;;;5039236;28;19933;-78
2021/01/01 08:34:40;;;;;;;;;;;1.50;99.90;;;;;;5039200;28;19925;-78
2021/01/01 08:37:22;;;;;;;;;;;1.50;99.90;;;;;;5039056;28;19940;-78
2021/01/01 08:40:00;;;;;;;;;;;1.50;99.90;;;;;;5036969;28;19925;-78
2021/01/01 08:42:31;;;;;;;;;;;1.50;99.90;;;;;;5038391;28;19925;-77
2021/01/01 08:45:01;;;;;;;;;;;1.40;99.90;;;;;;5039593;28;19925;-77
2021/01/01 08:47:42;;;;;;;;;;;1.50;99.90;;;;;;5039688;28;20365;-78
2021/01/01 08:50:24;;;;;;;;;;;1.50;99.90;;;;;;5039715;28;20278;-77
2021/01/01 08:53:28;;;;;;;;;;;1.50;99.90;;;;;;5036695;28;19936;-78
2021/01/01 08:56:00;;;;;;;;;;;1.50;99.90;;;;;;5040352;28;19929;-77
2021/01/01 08:58:28;;;;;;;;;;;1.50;99.90;;;;;;5039472;28;20016;-78
2021/01/01 09:00:55;;;;;;;;;;;1.50;99.90;;;;;;5039096;28;20341;-77
2021/01/01 09:03:23;;;;;;;;;;;1.60;99.90;;;;;;5040290;28;19951;-78
2021/01/01 09:05:54;;;;;;;;;;;1.60;99.90;;;;;;5041074;28;19925;-78
2021/01/01 09:08:22;;;;;;;;;;;1.60;99.90;;;;;;5042122;28;19960;-78
2021/01/01 09:10:49;;;;;;;;;;;1.60;99.90;;;;;;5041771;28;19933;-78
2021/01/01 09:13:18;;;;;;;;;;;1.60;99.90;;;;;;5042407;28;19925;-78
2021/01/01 09:15:46;;;;;;;;;;;1.90;99.90;;;;;;5043346;28;19932;-78
2021/01/01 09:18:13;;;;;;;;;;;1.90;99.90;;;;;;5043067;28;20140;-78
2021/01/01 09:23:50;;;;;;;;;;;1.70;99.90;;;;;;5042524;28;19924;-78
2021/01/01 09:26:22;;;;;;;;;;;2.00;99.90;;;;;;5044658;28;20468;-78
2021/01/01 09:28:50;;;;;;;;;;;1.70;99.90;;;;;;5046052;28;19925;-78
2021/01/01 09:31:16;;;;;;;;;;;1.70;99.90;;;;;;5047085;28;19951;-78
2021/01/01 09:33:59;;;;;;;;;;;1.80;99.90;;;;;;5049946;28;20012;-78
2021/01/01 09:36:26;;;;;;;;;;;1.80;99.90;;;;;;5049729;28;19936;-78
2021/01/01 09:38:54;;;;;;;;;;;1.80;99.90;;;;;;5049828;28;20367;-78
2021/01/01 09:41:22;;;;;;;;;;;1.80;99.90;;;;;;5047312;28;19996;-78
2021/01/01 09:43:50;;;;;;;;;;;1.90;99.90;;;;;;5046540;28;20051;-78
2021/01/01 09:46:17;;;;;;;;;;;1.90;99.90;;;;;;5049566;28;19984;-78
2021/01/01 09:48:45;;;;;;;;;;;1.90;99.90;;;;;;5051281;28;19956;-78
2021/01/01 09:51:14;;;;;;;;;;;-1.00;99.90;;;;;;5049558;28;19979;-78
2021/01/01 09:53:41;;;;;;;;;;;2.00;99.90;;;;;;5050078;28;20001;-78
2021/01/01 09:56:09;;;;;;;;;;;2.00;99.90;;;;;;5050518;28;20380;-78
2021/01/01 09:58:37;;;;;;;;;;;2.30;99.90;;;;;;5052038;28;19973;-78
2021/01/01 10:01:07;;;;;;;;;;;2.10;99.90;;;;;;5051634;28;19964;-78
2021/01/01 10:03:35;;;;;;;;;;;2.30;99.90;;;;;;5051303;28;20299;-78
2021/01/01 10:06:03;;;;;;;;;;;2.10;99.90;;;;;;5051724;28;19932;-78
2021/01/01 10:08:33;;;;;;;;;;;2.10;99.90;;;;;;5052085;28;19953;-78
2021/01/01 10:11:01;;;;;;;;;;;2.10;99.90;;;;;;5052412;28;19937;-78
2021/01/01 10:13:28;;;;;;;;;;;2.30;99.90;;;;;;5052567;28;19959;-78
2021/01/01 10:15:56;;;;;;;;;;;2.50;99.90;;;;;;5053531;28;20000;-78
2021/01/01 10:18:26;;;;;;;;;;;2.20;99.90;;;;;;5055405;28;19929;-78
2021/01/01 10:20:57;;;;;;;;;;;2.50;99.90;;;;;;5055080;28;20503;-79
2021/01/01 10:23:26;;;;;;;;;;;2.50;99.90;;;;;;5054411;28;19925;-79
2021/01/01 10:26:00;;;;;;;;;;;2.40;99.90;;;;;;5056658;28;19992;-78
2021/01/01 10:28:31;;;;;;;;;;;2.40;99.90;;;;;;5056615;28;19997;-79
2021/01/01 10:31:03;;;;;;;;;;;2.80;99.90;;;;;;5056999;28;20000;-78
2021/01/01 10:33:32;;;;;;;;;;;2.50;99.90;;;;;;5056901;28;19940;-78
2021/01/01 10:35:59;;;;;;;;;;;2.40;99.90;;;;;;5055623;28;19925;-78
2021/01/01 10:38:59;;;;;;;;;;;2.40;99.90;;;;;;5056709;28;19940;-79
2021/01/01 10:41:26;;;;;;;;;;;3.10;99.90;;;;;;4959351;29;19926;-79
2021/01/01 10:43:56;;;;;;;;;;;2.90;99.90;;;;;;4956975;29;19930;-78
2021/01/01 10:46:22;;;;;;;;;;;2.60;99.90;;;;;;4957450;29;19937;-78
2021/01/01 10:49:13;;;;;;;;;;;2.50;99.90;;;;;;4957460;29;19927;-78
2021/01/01 10:51:40;;;;;;;;;;;2.70;99.90;;;;;;4958164;29;20265;-78
2021/01/01 10:54:09;;;;;;;;;;;5.50;99.90;;;;;;4959113;29;19926;-79
2021/01/01 10:56:43;;;;;;;;;;;2.90;99.90;;;;;;4958429;29;19927;-79
2021/01/01 10:59:13;;;;;;;;;;;3.10;99.90;;;;;;4957759;29;19937;-78
2021/01/01 11:01:48;;;;;;;;;;;2.90;99.90;;;;;;4957107;29;19938;-78
2021/01/01 11:04:26;;;;;;;;;;;2.70;99.90;;;;;;4956898;29;20016;-78
2021/01/01 11:06:54;;;;;;;;;;;3.10;99.90;;;;;;4956656;29;19941;-78
2021/01/01 11:09:24;;;;;;;;;;;3.10;99.90;;;;;;4956249;29;19969;-79
2021/01/01 11:12:06;;;;;;;;;;;3.30;99.90;;;;;;4955749;29;19910;-79
2021/01/01 11:14:52;;;;;;;;;;;6.30;99.90;;;;;;4971330;28;19929;-79
2021/01/01 12:24:01;;;;;;;;;;;3.30;99.90;;;;;;5026299;28;19976;-78
2021/01/01 12:26:36;;;;;;;;;;;0.40;99.90;;;;;;5027778;28;20012;-78
2021/01/01 12:29:02;;;;;;;;;;;3.30;99.90;;;;;;5033828;28;19929;-78
2021/01/01 12:31:32;;;;;;;;;;;3.30;99.90;;;;;;5047139;28;20353;-78
2021/01/01 12:34:00;;;;;;;;;;;3.20;99.90;;;;;;5047102;28;19925;-78
2021/01/01 12:36:27;;;;;;;;;;;3.30;99.90;;;;;;5047532;28;19972;-78
2021/01/01 12:38:55;;;;;;;;;;;3.30;99.90;;;;;;5047322;28;20023;-78
2021/01/01 12:41:22;;;;;;;;;;;3.40;99.90;;;;;;5047456;28;19936;-78
2021/01/01 12:43:51;;;;;;;;;;;3.40;99.90;;;;;;5047981;28;20266;-78
2021/01/01 12:46:18;;;;;;;;;;;3.20;99.90;;;;;;5047150;28;19955;-78
2021/01/01 12:48:47;;;;;;;;;;;3.20;99.90;;;;;;5047159;28;20011;-78
2021/01/01 12:51:17;;;;;;;;;;;3.20;99.90;;;;;;5046785;28;19984;-78
2021/01/01 12:53:45;;;;;;;;;;;3.30;99.90;;;;;;5047097;28;19925;-78
2021/01/01 12:56:12;;;;;;;;;;;3.30;99.90;;;;;;5046047;28;19989;-78
2021/01/01 12:58:38;;;;;;;;;;;3.40;99.90;;;;;;5045329;28;19964;-78
2021/01/01 13:01:05;;;;;;;;;;;3.40;99.90;;;;;;5044405;28;19925;-78
2021/01/01 13:03:33;;;;;;;;;;;3.40;99.90;;;;;;5044230;28;19929;-78
2021/01/01 13:05:59;;;;;;;;;;;3.40;99.90;;;;;;5046908;28;19925;-78
2021/01/01 13:08:27;;;;;;;;;;;3.40;99.90;;;;;;5049615;28;19960;-78
2021/01/01 13:10:53;;;;;;;;;;;3.50;99.90;;;;;;5049203;28;19929;-78
2021/01/01 13:13:22;;;;;;;;;;;3.50;99.90;;;;;;5049242;28;19935;-78
2021/01/01 13:15:50;;;;;;;;;;;3.50;99.90;;;;;;5049310;28;19936;-78
2021/01/01 13:18:20;;;;;;;;;;;3.50;99.90;;;;;;5048420;28;19972;-78
2021/01/01 13:20:49;;;;;;;;;;;3.50;99.90;;;;;;5048699;28;19925;-78
2021/01/01 13:23:17;;;;;;;;;;;3.50;99.90;;;;;;5048288;28;19925;-78
2021/01/01 13:25:47;;;;;;;;;;;3.50;99.90;;;;;;5048579;28;20266;-78
2021/01/01 13:28:15;;;;;;;;;;;3.60;99.90;;;;;;5049551;28;20288;-78
2021/01/01 13:30:44;;;;;;;;;;;3.50;99.90;;;;;;5049647;28;19940;-78
2021/01/01 13:33:14;;;;;;;;;;;3.50;99.90;;;;;;5050100;28;19925;-78
2021/01/01 13:35:45;;;;;;;;;;;3.50;99.90;;;;;;5051103;28;19928;-78
2021/01/01 13:38:13;;;;;;;;;;;3.50;99.90;;;;;;5052186;28;20016;-78
2021/01/01 13:40:40;;;;;;;;;;;3.50;99.90;;;;;;5052535;28;19980;-78
2021/01/01 13:43:08;;;;;;;;;;;3.50;99.90;;;;;;5053536;28;20249;-78
2021/01/01 13:45:38;;;;;;;;;;;3.50;99.90;;;;;;5055789;28;19960;-78
2021/01/01 13:48:06;;;;;;;;;;;3.50;99.90;;;;;;5056370;28;19935;-78
2021/01/01 13:50:33;;;;;;;;;;;3.50;99.90;;;;;;5055717;28;20006;-78
2021/01/01 13:53:04;;;;;;;;;;;3.40;99.90;;;;;;5054986;28;20369;-78
2021/01/01 13:55:32;;;;;;;;;;;4.40;99.90;;;;;;5056422;28;19925;-78
2021/01/01 13:58:02;;;;;;;;;;;3.90;99.90;;;;;;5054890;28;20030;-79
2021/01/01 14:00:30;;;;;;;;;;;3.40;99.90;;;;;;5045972;28;19925;-78
2021/01/01 14:02:58;;;;;;;;;;;3.50;99.90;;;;;;5036933;28;19983;-79
2021/01/01 14:05:28;;;;;;;;;;;3.50;99.90;;;;;;5036416;28;19926;-79
2021/01/01 14:07:58;;;;;;;;;;;3.50;99.90;;;;;;5036672;28;19936;-79
2021/01/01 14:10:28;;;;;;;;;;;3.50;99.90;;;;;;5038044;28;19972;-79
2021/01/01 14:12:56;;;;;;;;;;;3.70;99.90;;;;;;5033238;28;19926;-79
2021/01/01 14:15:24;;;;;;;;;;;3.60;99.90;;;;;;5033741;28;19961;-78
2021/01/01 14:17:51;;;;;;;;;;;3.50;99.90;;;;;;5029877;28;19988;-78
2021/01/01 14:20:19;;;;;;;;;;;3.60;99.90;;;;;;5028895;28;20014;-79
2021/01/01 14:22:49;;;;;;;;;;;3.60;99.90;;;;;;5030563;28;19925;-79
2021/01/01 14:25:17;;;;;;;;;;;3.50;99.90;;;;;;5031435;28;20262;-79
2021/01/01 14:27:45;;;;;;;;;;;3.60;99.90;;;;;;5032906;28;19964;-79
2021/01/01 14:30:13;;;;;;;;;;;3.60;99.90;;;;;;5031735;28;19964;-79
2021/01/01 14:32:44;;;;;;;;;;;3.60;99.90;;;;;;5038201;28;19997;-79
2021/01/01 14:35:15;;;;;;;;;;;3.70;99.90;;;;;;5033422;28;19953;-79
2021/01/01 14:37:46;;;;;;;;;;;3.70;99.90;;;;;;5030626;28;19987;-79
2021/01/01 14:40:16;;;;;;;;;;;3.60;99.90;;;;;;5030406;28;19929;-79
2021/01/01 14:42:45;;;;;;;;;;;3.70;99.90;;;;;;5020165;28;19940;-79
2021/01/01 14:45:12;;;;;;;;;;;3.60;99.90;;;;;;5012811;28;19981;-79
2021/01/01 14:47:42;;;;;;;;;;;3.70;99.90;;;;;;5012932;28;19977;-79
2021/01/01 14:52:53;;;;;;;;;;;3.70;99.90;;;;;;5012978;28;19937;-79
2021/01/01 14:55:23;;;;;;;;;;;4.00;99.90;;;;;;5013459;28;19965;-79
2021/01/01 14:57:55;;;;;;;;;;;3.90;99.90;;;;;;5012905;28;19926;-79
2021/01/01 15:00:24;;;;;;;;;;;3.90;99.90;;;;;;5022689;28;19929;-79
2021/01/01 15:02:52;;;;;;;;;;;3.70;99.90;;;;;;5031023;28;19925;-79
2021/01/01 15:05:20;;;;;;;;;;;3.60;99.90;;;;;;5032014;28;19925;-78
2021/01/01 15:07:48;;;;;;;;;;;1.40;99.90;;;;;;5033217;28;19988;-78
2021/01/01 15:10:15;;;;;;;;;;;3.80;99.90;;;;;;5033216;28;19925;-78
2021/01/01 15:12:45;;;;;;;;;;;3.70;99.90;;;;;;5036367;28;20282;-79
2021/01/01 15:15:17;;;;;;;;;;;3.50;99.90;;;;;;5037557;28;19972;-79
2021/01/01 15:18:02;;;;;;;;;;;3.50;99.90;;;;;;5039412;28;19933;-79
2021/01/01 15:20:58;;;;;;;;;;;3.90;99.90;;;;;;5031618;28;19917;-79
2021/01/01 15:26:16;;;;;;;;;;;3.60;99.90;;;;;;5008445;28;20326;-79
2021/01/01 15:28:58;;;;;;;;;;;7.00;99.90;;;;;;5019187;28;19909;-79
2021/01/01 15:31:59;;;;;;;;;;;3.50;99.90;;;;;;5007493;28;19909;-79
2021/01/01 15:34:30;;;;;;;;;;;3.90;99.90;;;;;;5020049;28;19990;-79
2021/01/01 15:37:02;;;;;;;;;;;2.10;99.90;;;;;;5019946;28;19932;-79
2021/01/01 15:39:35;;;;;;;;;;;3.70;99.90;;;;;;5019206;28;19910;-79
2021/01/01 15:42:08;;;;;;;;;;;3.60;99.90;;;;;;5019024;28;20243;-80
2021/01/01 15:44:39;;;;;;;;;;;3.50;99.90;;;;;;5019319;28;19952;-79
2021/01/01 15:47:33;;;;;;;;;;;2.80;99.90;;;;;;5019161;28;19926;-79
2021/01/01 15:52:51;;;;;;;;;;;3.70;99.90;;;;;;5019074;28;19949;-79
2021/01/01 15:55:27;;;;;;;;;;;3.70;99.90;;;;;;5018980;28;19925;-79
2021/01/01 15:58:03;;;;;;;;;;;3.70;99.90;;;;;;5019276;28;19910;-79
2021/01/01 16:03:35;;;;;;;;;;;3.30;99.90;;;;;;5019008;28;19949;-79
2021/01/01 16:06:07;;;;;;;;;;;3.50;99.90;;;;;;5018595;28;19949;-79
2021/01/01 16:08:39;;;;;;;;;;;1.00;99.90;;;;;;5018082;28;19933;-79
2021/01/01 16:11:13;;;;;;;;;;;2.50;99.90;;;;;;5019289;28;19933;-79
2021/01/01 16:13:49;;;;;;;;;;;6.60;99.90;;;;;;5017130;28;19932;-79
2021/01/01 16:16:18;;;;;;;;;;;3.50;99.90;;;;;;5000606;28;19949;-79
2021/01/01 16:18:49;;;;;;;;;;;2.80;99.90;;;;;;5018420;28;19926;-79
2021/01/01 16:24:03;;;;;;;;;;;3.40;99.90;;;;;;5021665;28;20350;-79
2021/01/01 16:27:00;;;;;;;;;;;3.30;99.90;;;;;;5036576;28;19964;-79
2021/01/01 16:29:31;;;;;;;;;;;5.80;99.90;;;;;;5033873;28;19926;-79
2021/01/01 16:32:01;;;;;;;;;;;3.30;99.90;;;;;;5032432;28;19925;-79
2021/01/01 16:34:30;;;;;;;;;;;3.30;99.90;;;;;;5033385;28;19926;-79
2021/01/01 16:36:57;;;;;;;;;;;3.20;99.90;;;;;;5034291;28;19926;-79
2021/01/01 16:39:26;;;;;;;;;;;3.20;99.90;;;;;;5034907;28;19926;-79
2021/01/01 16:42:06;;;;;;;;;;;3.40;99.90;;;;;;5034018;28;19930;-79
2021/01/01 16:44:34;;;;;;;;;;;3.20;99.90;;;;;;5034868;28;19930;-79
2021/01/01 16:47:04;;;;;;;;;;;3.80;99.90;;;;;;5034370;28;19916;-79
2021/01/01 16:49:37;;;;;;;;;;;3.40;99.90;;;;;;5035040;28;19964;-79
2021/01/01 16:55:00;;;;;;;;;;;3.20;99.90;;;;;;5032982;28;19925;-79
2021/01/01 16:57:27;;;;;;;;;;;3.00;99.90;;;;;;5033609;28;19925;-79
2021/01/01 16:59:54;;;;;;;;;;;3.20;99.90;;;;;;5032519;28;20376;-79
2021/01/01 17:02:25;;;;;;;;;;;3.10;99.90;;;;;;5032313;28;19965;-79
2021/01/01 17:04:54;;;;;;;;;;;2.90;99.90;;;;;;5032199;28;19926;-79
2021/01/01 17:07:23;;;;;;;;;;;1.80;99.90;;;;;;5032884;28;19926;-79
2021/01/01 17:09:51;;;;;;;;;;;2.80;99.90;;;;;;5032862;28;19925;-79
2021/01/01 17:12:20;;;;;;;;;;;2.80;99.90;;;;;;5032352;28;19936;-79
2021/01/01 17:14:48;;;;;;;;;;;3.10;99.90;;;;;;5032805;28;19925;-79
2021/01/01 17:17:15;;;;;;;;;;;2.70;99.90;;;;;;5031937;28;19953;-79
2021/01/01 17:19:42;;;;;;;;;;;2.70;99.90;;;;;;5029875;28;19968;-79
2021/01/01 17:22:11;;;;;;;;;;;2.70;99.90;;;;;;4916509;28;2560562;-79
2021/01/01 17:24:38;;;;;;;;;;;3.00;99.90;;;;;;5011826;28;19945;-80
2021/01/01 17:27:06;;;;;;;;;;;2.80;99.90;;;;;;5011989;28;19977;-80
2021/01/01 17:29:36;;;;;;;;;;;3.00;99.90;;;;;;5011233;28;19930;-80
2021/01/01 17:32:06;;;;;;;;;;;2.60;99.90;;;;;;5011628;28;20001;-80
2021/01/01 17:34:35;;;;;;;;;;;2.70;99.90;;;;;;5006931;28;19997;-79
2021/01/01 17:37:03;;;;;;;;;;;2.60;99.90;;;;;;5011632;28;19937;-80
2021/01/01 17:39:33;;;;;;;;;;;2.60;99.90;;;;;;5011196;28;19968;-80
2021/01/01 17:42:03;;;;;;;;;;;2.90;99.90;;;;;;5010308;28;19953;-80
2021/01/01 17:44:31;;;;;;;;;;;2.70;99.90;;;;;;5011167;28;19997;-80
2021/01/01 17:46:59;;;;;;;;;;;2.90;99.90;;;;;;5009827;28;20019;-79
2021/01/01 17:49:28;;;;;;;;;;;2.70;99.90;;;;;;5010671;28;19925;-80
2021/01/01 17:51:57;;;;;;;;;;;2.60;99.90;;;;;;5010137;28;19985;-80
2021/01/01 17:54:33;;;;;;;;;;;2.50;99.90;;;;;;5014017;28;19969;-80
2021/01/01 17:57:02;;;;;;;;;;;3.20;99.90;;;;;;5011968;28;19926;-79
2021/01/01 17:59:31;;;;;;;;;;;2.30;99.90;;;;;;5015185;28;19937;-79
2021/01/01 18:02:04;;;;;;;;;;;2.30;99.90;;;;;;5019425;28;19925;-80
2021/01/01 18:04:33;;;;;;;;;;;6.00;99.90;;;;;;5088599;23;19940;-79
2021/01/01 18:07:00;;;;;;;;;;;2.30;99.90;;;;;;5029960;28;19991;-79
2021/01/01 18:09:27;;;;;;;;;;;2.30;99.90;;;;;;5044502;28;19916;-80
2021/01/01 18:11:55;;;;;;;;;;;2.30;99.90;;;;;;5057073;28;20412;-80
2021/01/01 18:14:26;;;;;;;;;;;2.40;99.90;;;;;;5055406;28;19945;-80
2021/01/01 18:16:55;;;;;;;;;;;2.40;99.90;;;;;;5040052;28;19910;-80
2021/01/01 18:19:23;;;;;;;;;;;2.50;99.90;;;;;;5046568;28;19936;-80
2021/01/01 18:21:57;;;;;;;;;;;4.90;99.90;;;;;;5056445;28;19932;-80
2021/01/01 18:41:33;;;;;;;;;;;2.20;99.90;;;;;;5374303;23;19987;-78
2021/01/01 18:44:00;;;;;;;;;;;3.20;99.90;;;;;;5028176;28;19925;-78
2021/01/01 18:46:28;;;;;;;;;;;2.20;99.90;;;;;;5029696;28;19956;-78
2021/01/01 18:48:59;;;;;;;;;;;2.20;99.90;;;;;;5029252;28;19981;-78
2021/01/01 18:51:30;;;;;;;;;;;2.20;99.90;;;;;;5029633;28;19926;-78
2021/01/01 18:54:03;;;;;;;;;;;2.20;99.90;;;;;;5027997;28;19965;-78
2021/01/01 18:56:35;;;;;;;;;;;2.50;99.90;;;;;;5027783;28;19957;-78
2021/01/01 18:59:04;;;;;;;;;;;2.50;99.90;;;;;;5027891;28;19925;-78
2021/01/01 19:01:42;;;;;;;;;;;2.20;99.90;;;;;;5026171;28;20020;-78
2021/01/01 19:04:27;;;;;;;;;;;2.10;99.90;;;;;;5027597;28;19936;-78
2021/01/01 19:07:06;;;;;;;;;;;2.10;99.90;;;;;;5019106;28;19957;-78
2021/01/01 19:09:41;;;;;;;;;;;2.00;99.90;;;;;;5025778;28;19934;-78
2021/01/01 19:12:12;;;;;;;;;;;2.00;99.90;;;;;;5019201;28;19926;-78
2021/01/01 19:14:44;;;;;;;;;;;1.90;99.90;;;;;;5012228;28;19929;-78
2021/01/01 19:17:17;;;;;;;;;;;1.80;99.90;;;;;;5014819;28;19925;-78
2021/01/01 19:19:45;;;;;;;;;;;2.10;99.90;;;;;;5024274;28;19925;-78
2021/01/01 19:22:31;;;;;;;;;;;1.70;99.90;;;;;;5024771;28;19925;-78
2021/01/01 19:25:13;;;;;;;;;;;1.90;99.90;;;;;;5033002;28;19929;-78
2021/01/01 19:27:42;;;;;;;;;;;1.90;99.90;;;;;;5006022;28;19933;-79